createdAt,value
2018-05-03T00:01:38.492Z,15.30
2018-05-03T00:04:06.328Z,15.30
2018-05-03T00:06:34.624Z,15.20
2018-05-03T00:09:02.332Z,15.20
2018-05-03T00:11:29.914Z,15.20
2018-05-03T00:13:57.630Z,15.20
2018-05-03T00:16:25.168Z,15.30
2018-05-03T00:18:52.903Z,15.30
2018-05-03T00:21:20.495Z,15.20
2018-05-03T00:23:48.144Z,15.20
2018-05-03T00:26:15.744Z,15.10
2018-05-03T00:28:43.339Z,15.00
2018-05-03T00:31:11.720Z,15.10
2018-05-03T00:33:39.366Z,15.10
2018-05-03T00:36:07.150Z,15.10
2018-05-03T00:38:34.770Z,15.00
2018-05-03T00:41:02.426Z,15.10
2018-05-03T00:43:30.085Z,14.90
2018-05-03T00:48:26.145Z,15.00
2018-05-03T00:50:53.779Z,14.90
2018-05-03T00:53:21.534Z,14.80
2018-05-03T00:55:49.075Z,14.80
2018-05-03T00:58:16.790Z,14.80
2018-05-03T01:00:44.417Z,14.80
2018-05-03T01:03:12.055Z,14.90
2018-05-03T01:05:39.699Z,14.90
2018-05-03T01:08:07.451Z,14.90
2018-05-03T01:10:35.135Z,14.90
2018-05-03T01:13:02.849Z,14.90
2018-05-03T01:15:30.493Z,15.00
2018-05-03T01:17:58.106Z,14.90
2018-05-03T01:20:26.552Z,14.80
2018-05-03T01:22:54.117Z,14.80
2018-05-03T01:25:21.711Z,14.90
2018-05-03T01:27:49.378Z,14.80
2018-05-03T01:30:17.182Z,14.80
2018-05-03T01:32:44.874Z,14.80
2018-05-03T01:35:24.405Z,14.90
2018-05-03T01:37:52.162Z,15.00
2018-05-03T01:40:19.735Z,14.90
2018-05-03T01:42:47.522Z,14.90
2018-05-03T01:45:15.256Z,14.90
2018-05-03T01:47:42.996Z,14.90
2018-05-03T01:50:10.714Z,14.90
2018-05-03T01:52:38.395Z,14.90
2018-05-03T01:55:07.234Z,14.80
2018-05-03T01:57:34.848Z,14.90
2018-05-03T02:00:02.644Z,14.90
2018-05-03T02:02:30.199Z,14.80
2018-05-03T02:04:57.764Z,14.70
2018-05-03T02:07:25.424Z,14.60
2018-05-03T02:09:53.112Z,14.60
2018-05-03T02:12:20.738Z,14.50
2018-05-03T02:14:48.411Z,14.60
2018-05-03T02:17:16.136Z,14.70
2018-05-03T02:19:43.804Z,14.50
2018-05-03T02:22:11.621Z,14.50
2018-05-03T02:24:39.223Z,14.60
2018-05-03T02:27:06.938Z,14.60
2018-05-03T02:29:34.618Z,14.70
2018-05-03T02:32:02.345Z,14.50
2018-05-03T02:34:30.128Z,14.50
2018-05-03T02:36:57.790Z,14.50
2018-05-03T02:39:25.522Z,14.50
2018-05-03T02:41:53.105Z,14.50
2018-05-03T02:44:20.762Z,14.50
2018-05-03T02:46:48.797Z,14.40
2018-05-03T02:49:16.458Z,14.50
2018-05-03T02:51:44.112Z,14.50
2018-05-03T02:54:12.468Z,14.50
2018-05-03T02:56:40.874Z,14.60
2018-05-03T02:59:22.453Z,14.30
2018-05-03T03:01:56.348Z,14.50
2018-05-03T03:04:41.580Z,14.50
2018-05-03T03:10:45.476Z,14.60
2018-05-03T03:13:27.324Z,14.60
2018-05-03T03:16:13.738Z,14.60
2018-05-03T03:18:58.793Z,14.60
2018-05-03T03:21:44.478Z,14.60
2018-05-03T03:24:29.774Z,14.80
2018-05-03T03:27:16.320Z,14.50
2018-05-03T03:33:06.912Z,14.50
2018-05-03T03:38:46.082Z,14.50
2018-05-03T03:41:25.584Z,14.50
2018-05-03T03:44:05.269Z,14.60
2018-05-03T03:46:32.952Z,14.70
2018-05-03T03:49:00.589Z,14.60
2018-05-03T03:51:28.277Z,14.60
2018-05-03T03:53:55.901Z,14.70
2018-05-03T03:56:23.591Z,14.70
2018-05-03T03:58:51.146Z,14.70
2018-05-03T04:01:18.835Z,14.70
2018-05-03T04:03:46.479Z,14.70
2018-05-03T04:06:14.057Z,14.70
2018-05-03T04:08:41.732Z,14.60
2018-05-03T04:11:09.341Z,14.50
2018-05-03T04:13:37.746Z,14.50
2018-05-03T04:16:05.390Z,14.50
2018-05-03T04:18:44.727Z,14.60
2018-05-03T04:21:24.027Z,14.40
2018-05-03T04:24:13.116Z,14.50
2018-05-03T04:26:40.734Z,14.50
2018-05-03T04:29:08.432Z,14.40
2018-05-03T04:31:36.098Z,14.50
2018-05-03T04:34:03.677Z,14.40
2018-05-03T04:36:31.300Z,14.50
2018-05-03T04:38:59.166Z,14.40
2018-05-03T04:41:26.767Z,14.50
2018-05-03T04:43:54.400Z,14.50
2018-05-03T04:46:22.035Z,14.50
2018-05-03T04:48:49.634Z,14.60
2018-05-03T04:51:17.248Z,14.80
2018-05-03T04:53:44.838Z,14.80
2018-05-03T04:56:13.243Z,14.80
2018-05-03T04:58:40.841Z,14.80
2018-05-03T05:01:08.575Z,14.80
2018-05-03T05:03:36.945Z,14.80
2018-05-03T05:06:06.556Z,14.80
2018-05-03T05:08:34.123Z,14.80
2018-05-03T05:11:01.895Z,14.90
2018-05-03T05:13:29.606Z,14.90
2018-05-03T05:15:58.238Z,14.90
2018-05-03T05:18:25.889Z,15.00
2018-05-03T05:20:54.497Z,15.00
2018-05-03T05:23:22.837Z,15.10
2018-05-03T05:25:51.300Z,15.10
2018-05-03T05:28:18.987Z,15.10
2018-05-03T05:30:47.462Z,15.20
2018-05-03T05:33:16.104Z,15.20
2018-05-03T05:35:43.775Z,15.20
2018-05-03T05:38:11.500Z,15.40
2018-05-03T05:40:39.892Z,15.50
2018-05-03T05:43:08.312Z,15.50
2018-05-03T05:45:36.106Z,15.40
2018-05-03T05:48:04.692Z,15.70
2018-05-03T05:50:33.255Z,15.60
2018-05-03T05:53:02.446Z,15.70
2018-05-03T05:55:30.095Z,15.70
2018-05-03T05:57:57.724Z,15.60
2018-05-03T06:00:25.302Z,15.70
2018-05-03T06:02:52.914Z,15.70
2018-05-03T06:05:20.612Z,15.90
2018-05-03T06:07:48.521Z,15.90
2018-05-03T06:10:16.234Z,16.00
2018-05-03T06:12:43.893Z,16.00
2018-05-03T06:15:11.485Z,16.00
2018-05-03T06:17:40.009Z,16.20
2018-05-03T06:20:08.568Z,16.10
2018-05-03T06:22:36.177Z,16.20
2018-05-03T06:25:03.947Z,16.30
2018-05-03T06:27:36.479Z,16.40
2018-05-03T06:30:05.676Z,16.50
2018-05-03T06:32:33.277Z,16.60
2018-05-03T06:35:00.887Z,16.50
2018-05-03T06:37:28.566Z,16.40
2018-05-03T06:39:56.194Z,16.40
2018-05-03T06:42:23.906Z,16.40
2018-05-03T06:44:52.341Z,16.70
2018-05-03T06:47:20.080Z,16.70
2018-05-03T06:49:47.825Z,16.70
2018-05-03T06:52:16.311Z,17.10
2018-05-03T06:54:44.129Z,17.10
2018-05-03T06:57:11.781Z,17.30
2018-05-03T06:59:39.471Z,17.30
2018-05-03T07:02:07.087Z,17.50
2018-05-03T07:04:34.829Z,17.60
2018-05-03T07:07:02.662Z,17.60
2018-05-03T07:09:30.339Z,17.70
2018-05-03T07:11:57.981Z,17.80
2018-05-03T07:14:25.987Z,17.90
2018-05-03T07:16:53.701Z,17.90
2018-05-03T07:19:21.355Z,17.90
2018-05-03T07:21:49.354Z,18.00
2018-05-03T07:24:16.988Z,18.10
2018-05-03T07:26:44.619Z,18.30
2018-05-03T07:29:12.328Z,18.40
2018-05-03T07:31:39.951Z,18.60
2018-05-03T07:34:07.528Z,18.80
2018-05-03T07:36:35.123Z,18.80
2018-05-03T07:39:02.831Z,18.90
2018-05-03T07:41:30.419Z,18.70
2018-05-03T07:43:57.995Z,18.70
2018-05-03T07:46:25.779Z,18.70
2018-05-03T07:48:53.813Z,18.70
2018-05-03T07:51:22.276Z,18.80
2018-05-03T07:53:49.853Z,18.80
2018-05-03T07:56:17.454Z,19.10
2018-05-03T07:58:45.844Z,19.60
2018-05-03T08:01:13.796Z,19.60
2018-05-03T08:03:42.269Z,20.40
2018-05-03T08:06:09.937Z,20.30
2018-05-03T08:08:37.585Z,20.80
2018-05-03T08:11:05.555Z,21.20
2018-05-03T08:13:33.328Z,21.60
2018-05-03T08:16:00.909Z,22.30
2018-05-03T08:18:29.375Z,22.50
2018-05-03T08:20:57.101Z,22.50
2018-05-03T08:23:24.681Z,22.30
2018-05-03T08:25:52.263Z,22.30
2018-05-03T08:28:20.013Z,22.10
2018-05-03T08:30:47.632Z,21.80
2018-05-03T08:33:16.405Z,21.30
2018-05-03T08:35:43.980Z,21.40
2018-05-03T08:38:12.441Z,21.40
2018-05-03T08:40:40.172Z,21.50
2018-05-03T08:43:07.876Z,21.30
2018-05-03T08:45:36.057Z,21.30
2018-05-03T08:48:03.683Z,21.20
2018-05-03T08:50:32.495Z,20.80
2018-05-03T08:53:00.201Z,20.80
2018-05-03T08:55:27.784Z,20.60
2018-05-03T08:57:55.445Z,20.60
2018-05-03T09:00:23.039Z,20.60
2018-05-03T09:02:51.595Z,20.50
2018-05-03T09:05:19.963Z,20.80
2018-05-03T09:07:47.641Z,20.70
2018-05-03T09:10:16.030Z,21.40
2018-05-03T09:12:44.352Z,21.80
2018-05-03T09:15:11.933Z,21.70
2018-05-03T09:17:39.545Z,21.80
2018-05-03T09:20:07.101Z,22.10
2018-05-03T09:22:34.865Z,22.50
2018-05-03T09:25:02.539Z,22.90
2018-05-03T09:27:30.350Z,23.10
2018-05-03T09:29:58.115Z,23.10
2018-05-03T09:32:25.723Z,22.90
2018-05-03T09:34:53.318Z,22.80
2018-05-03T09:37:20.953Z,22.70
2018-05-03T09:39:48.513Z,22.60
2018-05-03T09:42:16.114Z,22.30
2018-05-03T09:44:43.925Z,22.00
2018-05-03T09:47:11.529Z,22.00
2018-05-03T09:49:39.083Z,21.80
2018-05-03T09:52:06.679Z,21.70
2018-05-03T09:54:34.311Z,21.70
2018-05-03T09:57:02.672Z,21.80
2018-05-03T09:59:30.281Z,21.70
2018-05-03T10:01:58.021Z,21.90
2018-05-03T10:04:25.614Z,22.00
2018-05-03T10:06:53.997Z,22.40
2018-05-03T10:09:21.567Z,22.40
2018-05-03T10:11:49.965Z,23.90
2018-05-03T10:14:17.575Z,23.90
2018-05-03T10:16:45.183Z,24.80
2018-05-03T10:19:13.163Z,25.90
2018-05-03T10:21:40.789Z,26.70
2018-05-03T10:24:08.573Z,27.10
2018-05-03T10:26:36.188Z,27.70
2018-05-03T10:29:03.957Z,28.50
2018-05-03T10:31:31.649Z,28.80
2018-05-03T10:33:59.305Z,29.80
2018-05-03T10:36:27.049Z,30.70
2018-05-03T10:38:54.597Z,31.60
2018-05-03T10:41:22.272Z,31.70
2018-05-03T10:43:50.013Z,32.30
2018-05-03T10:46:17.705Z,32.30
2018-05-03T10:48:45.343Z,32.30
2018-05-03T10:51:13.022Z,32.10
2018-05-03T10:53:40.670Z,31.50
2018-05-03T10:56:08.355Z,30.60
2018-05-03T10:58:35.967Z,30.20
2018-05-03T11:01:03.625Z,30.50
2018-05-03T11:03:31.252Z,30.50
2018-05-03T11:05:59.752Z,30.00
2018-05-03T11:08:27.347Z,30.00
2018-05-03T11:10:55.033Z,29.00
2018-05-03T11:13:22.640Z,27.80
2018-05-03T11:15:50.465Z,27.30
2018-05-03T11:18:18.115Z,26.60
2018-05-03T11:20:45.732Z,26.00
2018-05-03T11:23:13.731Z,25.40
2018-05-03T11:25:41.334Z,24.90
2018-05-03T11:28:08.980Z,24.70
2018-05-03T11:30:36.600Z,24.60
2018-05-03T11:33:04.318Z,24.30
2018-05-03T11:35:31.951Z,24.10
2018-05-03T11:37:59.843Z,24.00
2018-05-03T11:40:27.471Z,23.90
2018-05-03T11:42:55.060Z,23.80
2018-05-03T11:45:22.707Z,23.70
2018-05-03T11:47:50.381Z,23.50
2018-05-03T11:50:18.031Z,23.60
2018-05-03T11:52:45.698Z,23.70
2018-05-03T11:55:13.321Z,23.70
2018-05-03T11:57:41.427Z,23.70
2018-05-03T12:00:09.040Z,23.70
2018-05-03T12:02:36.633Z,23.70
2018-05-03T12:05:04.271Z,23.80
2018-05-03T12:07:32.104Z,23.80
2018-05-03T12:10:00.511Z,23.80
2018-05-03T12:12:28.226Z,23.80
2018-05-03T12:14:56.192Z,23.70
2018-05-03T12:17:23.868Z,23.70
2018-05-03T12:19:51.556Z,23.50
2018-05-03T12:22:19.277Z,23.50
2018-05-03T12:24:46.884Z,23.40
2018-05-03T12:27:14.618Z,23.20
2018-05-03T12:29:42.483Z,23.10
2018-05-03T12:32:10.073Z,22.80
2018-05-03T12:34:37.687Z,22.80
2018-05-03T12:37:05.449Z,22.60
2018-05-03T12:39:33.029Z,22.30
2018-05-03T12:42:01.436Z,22.30
2018-05-03T12:44:29.053Z,22.20
2018-05-03T12:46:56.757Z,22.20
2018-05-03T12:49:25.142Z,22.30
2018-05-03T12:51:53.539Z,22.30
2018-05-03T12:54:21.223Z,22.30
2018-05-03T12:56:48.821Z,22.20
2018-05-03T12:59:16.449Z,22.10
2018-05-03T13:01:44.033Z,22.20
2018-05-03T13:04:11.666Z,22.30
2018-05-03T13:06:39.348Z,22.40
2018-05-03T13:09:06.969Z,22.60
2018-05-03T13:11:34.592Z,22.60
2018-05-03T13:14:02.272Z,22.60
2018-05-03T13:16:30.664Z,22.70
2018-05-03T13:18:58.284Z,22.60
2018-05-03T13:21:26.158Z,22.70
2018-05-03T13:23:53.787Z,22.80
2018-05-03T13:26:21.374Z,22.90
2018-05-03T13:28:49.704Z,22.90
2018-05-03T13:31:17.786Z,22.90
2018-05-03T13:33:45.374Z,22.80
2018-05-03T13:36:13.035Z,22.90
2018-05-03T13:38:40.998Z,22.80
2018-05-03T13:41:08.691Z,22.40
2018-05-03T13:43:36.526Z,22.40
2018-05-03T13:46:04.133Z,22.30
2018-05-03T13:48:31.737Z,22.50
2018-05-03T13:50:59.317Z,22.50
2018-05-03T13:53:27.031Z,22.60
2018-05-03T13:55:54.727Z,22.70
2018-05-03T13:58:22.318Z,22.60
2018-05-03T14:00:50.770Z,22.50
2018-05-03T14:03:19.030Z,22.60
2018-05-03T14:05:47.539Z,22.50
2018-05-03T14:08:15.204Z,22.40
2018-05-03T14:10:42.868Z,22.50
2018-05-03T14:13:10.636Z,22.50
2018-05-03T14:15:38.251Z,22.60
2018-05-03T14:18:05.956Z,22.40
2018-05-03T14:20:33.712Z,22.50
2018-05-03T14:23:01.823Z,22.40
2018-05-03T14:25:31.658Z,22.20
2018-05-03T14:27:59.398Z,22.10
2018-05-03T14:30:27.111Z,22.10
2018-05-03T14:32:54.669Z,22.00
2018-05-03T14:35:22.434Z,21.90
2018-05-03T14:37:50.071Z,21.80
2018-05-03T14:40:17.654Z,21.70
2018-05-03T14:42:45.346Z,21.50
2018-05-03T14:45:14.799Z,21.60
2018-05-03T14:47:42.895Z,21.40
2018-05-03T14:50:10.481Z,21.40
2018-05-03T14:52:38.153Z,21.40
2018-05-03T14:55:05.837Z,21.40
2018-05-03T14:57:33.437Z,21.30
2018-05-03T15:00:01.103Z,21.40
2018-05-03T15:02:28.878Z,21.40
2018-05-03T15:04:56.459Z,21.40
2018-05-03T15:07:24.142Z,21.50
2018-05-03T15:09:51.787Z,21.60
2018-05-03T15:12:20.247Z,21.70
2018-05-03T15:14:47.834Z,21.70
2018-05-03T15:17:15.486Z,21.60
2018-05-03T15:19:43.241Z,21.50
2018-05-03T15:22:10.834Z,21.30
2018-05-03T15:24:38.468Z,21.20
2018-05-03T15:27:06.424Z,21.10
2018-05-03T15:29:34.098Z,21.10
2018-05-03T15:32:01.765Z,20.90
2018-05-03T15:34:29.407Z,20.80
2018-05-03T15:36:57.061Z,20.70
2018-05-03T15:39:24.708Z,20.60
2018-05-03T15:41:52.314Z,20.60
2018-05-03T15:44:19.957Z,20.60
2018-05-03T15:46:47.572Z,20.50
2018-05-03T15:49:15.230Z,20.50
2018-05-03T15:51:43.270Z,20.50
2018-05-03T15:54:10.912Z,20.50
2018-05-03T15:56:38.600Z,20.30
2018-05-03T15:59:06.396Z,20.20
2018-05-03T16:01:34.131Z,20.00
2018-05-03T16:04:02.483Z,19.80
2018-05-03T16:06:30.186Z,19.80
2018-05-03T16:08:57.817Z,19.70
2018-05-03T16:11:25.497Z,19.60
2018-05-03T16:13:53.279Z,19.60
2018-05-03T16:16:21.227Z,19.60
2018-05-03T16:18:48.974Z,19.60
2018-05-03T16:21:16.551Z,19.70
2018-05-03T16:23:44.580Z,19.80
2018-05-03T16:26:12.389Z,19.50
2018-05-03T16:28:40.802Z,19.60
2018-05-03T16:31:08.571Z,19.50
2018-05-03T16:33:36.268Z,19.60
2018-05-03T16:36:03.906Z,19.60
2018-05-03T16:38:31.604Z,19.50
2018-05-03T16:40:59.340Z,19.50
2018-05-03T16:43:27.034Z,19.40
2018-05-03T16:45:54.643Z,19.30
2018-05-03T16:48:22.283Z,19.20
2018-05-03T16:50:50.418Z,19.20
2018-05-03T16:53:18.059Z,19.30
2018-05-03T16:55:45.839Z,19.30
2018-05-03T16:58:13.490Z,19.30
2018-05-03T17:00:41.155Z,19.20
2018-05-03T17:03:08.834Z,19.20
2018-05-03T17:05:36.425Z,19.30
2018-05-03T17:08:04.088Z,19.40
2018-05-03T17:10:31.735Z,19.40
2018-05-03T17:13:00.100Z,19.40
2018-05-03T17:15:27.703Z,19.40
2018-05-03T17:17:55.319Z,19.40
2018-05-03T17:20:23.031Z,19.30
2018-05-03T17:22:50.637Z,19.30
2018-05-03T17:25:18.356Z,19.40
2018-05-03T17:27:45.946Z,19.30
2018-05-03T17:30:14.184Z,19.20
2018-05-03T17:32:41.749Z,19.10
2018-05-03T17:35:09.351Z,19.10
2018-05-03T17:37:37.141Z,19.10
2018-05-03T17:40:05.611Z,18.90
2018-05-03T17:42:33.176Z,19.00
2018-05-03T17:45:00.776Z,19.00
2018-05-03T17:47:28.368Z,18.80
2018-05-03T17:49:56.050Z,18.70
2018-05-03T17:52:23.844Z,18.70
2018-05-03T17:54:51.539Z,18.70
2018-05-03T17:57:19.121Z,18.60
2018-05-03T17:59:47.003Z,18.50
2018-05-03T18:02:14.643Z,18.50
2018-05-03T18:04:42.270Z,18.50
2018-05-03T18:07:10.628Z,18.40
2018-05-03T18:09:38.998Z,18.40
2018-05-03T18:12:07.043Z,18.30
2018-05-03T18:14:34.727Z,18.30
2018-05-03T18:17:02.380Z,18.20
2018-05-03T18:19:29.965Z,18.20
2018-05-03T18:21:58.713Z,18.10
2018-05-03T18:24:26.370Z,18.10
2018-05-03T18:26:54.053Z,18.10
2018-05-03T18:29:21.737Z,18.10
2018-05-03T18:31:49.368Z,18.10
2018-05-03T18:34:17.383Z,18.00
2018-05-03T18:36:44.942Z,18.00
2018-05-03T18:39:12.502Z,17.90
2018-05-03T18:41:40.250Z,17.90
2018-05-03T18:44:08.752Z,17.70
2018-05-03T18:46:36.400Z,17.80
2018-05-03T18:49:04.125Z,17.80
2018-05-03T18:51:31.725Z,17.80
2018-05-03T18:54:00.106Z,17.90
2018-05-03T18:56:28.744Z,17.90
2018-05-03T18:58:56.410Z,17.90
2018-05-03T19:01:24.169Z,17.90
2018-05-03T19:03:52.183Z,17.90
2018-05-03T19:06:19.754Z,17.90
2018-05-03T19:08:47.359Z,17.90
2018-05-03T19:11:15.283Z,17.80
2018-05-03T19:13:42.838Z,17.80
2018-05-03T19:16:10.576Z,17.80
2018-05-03T19:18:38.198Z,17.80
2018-05-03T19:21:05.924Z,17.90
2018-05-03T19:23:34.285Z,17.80
2018-05-03T19:26:01.903Z,17.80
2018-05-03T19:28:29.514Z,17.90
2018-05-03T19:30:57.121Z,17.90
2018-05-03T19:33:25.013Z,17.90
2018-05-03T19:35:52.624Z,17.90
2018-05-03T19:38:20.214Z,17.90
2018-05-03T19:40:47.871Z,17.90
2018-05-03T19:43:15.728Z,17.90
2018-05-03T19:45:43.324Z,18.00
2018-05-03T19:48:10.885Z,17.90
2018-05-03T19:50:38.453Z,17.70
2018-05-03T19:53:06.098Z,17.80
2018-05-03T19:55:33.748Z,17.80
2018-05-03T19:58:01.334Z,17.80
2018-05-03T20:00:28.919Z,17.90
2018-05-03T20:02:56.567Z,17.80
2018-05-03T20:05:24.227Z,17.80
2018-05-03T20:07:51.865Z,17.80
2018-05-03T20:10:19.572Z,17.80
2018-05-03T20:12:47.304Z,17.90
2018-05-03T20:15:15.026Z,17.80
2018-05-03T20:17:42.639Z,17.80
2018-05-03T20:20:10.266Z,17.80
2018-05-03T20:22:37.888Z,17.70
2018-05-03T20:25:05.454Z,17.60
2018-05-03T20:27:33.106Z,17.60
2018-05-03T20:30:00.665Z,17.60
2018-05-03T20:32:28.428Z,17.60
2018-05-03T20:34:56.031Z,17.60
2018-05-03T20:37:23.639Z,17.60
2018-05-03T20:39:52.098Z,17.60
2018-05-03T20:42:19.762Z,17.60
2018-05-03T20:44:47.398Z,17.50
2018-05-03T20:47:14.986Z,17.50
2018-05-03T20:49:42.579Z,17.50
2018-05-03T20:52:10.144Z,17.50
2018-05-03T20:54:37.723Z,17.40
2018-05-03T20:57:05.465Z,17.30
2018-05-03T20:59:33.085Z,17.30
2018-05-03T21:02:00.746Z,17.30
2018-05-03T21:04:28.383Z,17.30
2018-05-03T21:06:55.981Z,17.10
2018-05-03T21:09:23.613Z,17.10
2018-05-03T21:11:51.197Z,17.10
2018-05-03T21:14:18.797Z,17.10
2018-05-03T21:16:46.388Z,17.10
2018-05-03T21:19:13.962Z,17.10
2018-05-03T21:21:41.939Z,17.20
2018-05-03T21:24:09.508Z,17.10
2018-05-03T21:26:37.136Z,17.10
2018-05-03T21:29:04.818Z,17.10
2018-05-03T21:31:32.482Z,17.10
2018-05-03T21:34:00.137Z,17.10
2018-05-03T21:36:27.729Z,17.10
2018-05-03T21:38:56.132Z,17.00
2018-05-03T21:41:23.728Z,17.00
2018-05-03T21:43:51.328Z,16.90
2018-05-03T21:46:18.917Z,16.90
2018-05-03T21:48:46.479Z,16.80
2018-05-03T21:51:14.086Z,16.90
2018-05-03T21:53:41.695Z,17.00
2018-05-03T21:56:09.281Z,16.70
2018-05-03T21:58:36.907Z,16.80
2018-05-03T22:01:06.363Z,16.70
2018-05-03T22:03:34.100Z,16.70
2018-05-03T22:06:01.692Z,16.80
2018-05-03T22:08:29.493Z,16.70
2018-05-03T22:10:57.063Z,16.70
2018-05-03T22:13:24.654Z,16.50
2018-05-03T22:15:52.220Z,16.60
2018-05-03T22:18:19.867Z,16.70
2018-05-03T22:20:47.801Z,16.70
2018-05-03T22:23:16.144Z,16.50
2018-05-03T22:25:43.831Z,16.50
2018-05-03T22:28:11.448Z,16.60
2018-05-03T22:30:39.076Z,16.70
2018-05-03T22:33:06.675Z,16.70
2018-05-03T22:35:34.252Z,16.70
2018-05-03T22:38:01.897Z,16.70
2018-05-03T22:40:29.527Z,16.70
2018-05-03T22:42:57.134Z,16.80
2018-05-03T22:45:24.683Z,16.70
2018-05-03T22:47:52.253Z,16.70
2018-05-03T22:50:19.854Z,16.70
2018-05-03T22:52:47.547Z,16.70
2018-05-03T22:55:15.124Z,16.70
2018-05-03T22:57:42.740Z,16.70
2018-05-03T23:00:10.351Z,16.60
2018-05-03T23:02:37.916Z,16.50
2018-05-03T23:05:05.538Z,16.40
2018-05-03T23:07:33.115Z,16.30
2018-05-03T23:10:00.812Z,16.30
2018-05-03T23:12:28.406Z,16.30
2018-05-03T23:14:55.995Z,16.20
2018-05-03T23:17:23.591Z,16.10
2018-05-03T23:19:51.160Z,16.10
2018-05-03T23:22:18.774Z,16.00
2018-05-03T23:24:46.327Z,16.10
2018-05-03T23:27:13.903Z,16.10
2018-05-03T23:29:41.467Z,16.20
2018-05-03T23:32:09.101Z,16.00
2018-05-03T23:34:36.645Z,16.00
2018-05-03T23:37:04.267Z,16.00
2018-05-03T23:39:31.908Z,16.00
2018-05-03T23:41:59.465Z,16.00
2018-05-03T23:44:27.021Z,16.00
2018-05-03T23:46:54.661Z,16.10
2018-05-03T23:49:22.219Z,16.10
2018-05-03T23:51:49.883Z,16.10
2018-05-03T23:54:17.447Z,16.00
2018-05-03T23:56:44.995Z,16.00
2018-05-03T23:59:12.683Z,16.00
